createdAt,value
2023-02-13T00:00:43.940Z,87.55
2023-02-13T00:05:35.655Z,87.86
2023-02-13T00:10:27.342Z,88.22
2023-02-13T00:15:19.134Z,88.33
2023-02-13T00:20:12.520Z,89.08
2023-02-13T00:25:05.771Z,89.02
2023-02-13T00:29:57.436Z,89.09
2023-02-13T00:34:49.338Z,88.60
2023-02-13T00:39:42.099Z,88.62
2023-02-13T00:44:34.111Z,88.59
2023-02-13T00:49:26.093Z,88.91
2023-02-13T00:54:17.918Z,88.47
2023-02-13T00:59:09.636Z,88.76
2023-02-13T01:04:01.482Z,89.37
2023-02-13T01:08:53.294Z,89.36
2023-02-13T01:13:46.657Z,89.16
2023-02-13T01:18:39.059Z,89.12
2023-02-13T01:23:37.772Z,89.68
2023-02-13T01:28:29.739Z,89.45
2023-02-13T01:33:22.784Z,89.42
2023-02-13T01:38:15.428Z,89.11
2023-02-13T01:43:10.198Z,89.34
2023-02-13T01:48:09.661Z,88.99
2023-02-13T01:53:32.087Z,88.87
2023-02-13T01:58:29.208Z,89.07
2023-02-13T02:03:28.280Z,89.81
2023-02-13T02:08:20.501Z,89.33
2023-02-13T02:13:20.261Z,89.50
2023-02-13T02:18:19.917Z,89.64
2023-02-13T02:23:30.603Z,89.46
2023-02-13T02:28:50.524Z,89.87
2023-02-13T02:33:57.379Z,91.09
2023-02-13T02:39:02.964Z,91.29
2023-02-13T02:44:16.851Z,91.66
2023-02-13T02:49:33.829Z,91.46
2023-02-13T02:55:09.568Z,91.78
2023-02-13T03:00:20.331Z,91.85
2023-02-13T03:05:45.692Z,91.78
2023-02-13T03:10:58.108Z,91.85
2023-02-13T03:16:16.459Z,92.43
2023-02-13T03:21:44.920Z,92.17
2023-02-13T03:26:51.652Z,92.17
2023-02-13T03:32:03.515Z,92.12
2023-02-13T03:37:30.025Z,92.39
2023-02-13T03:42:36.013Z,92.87
2023-02-13T03:47:27.906Z,92.26
2023-02-13T03:52:26.432Z,92.47
2023-02-13T03:57:40.431Z,92.52
2023-02-13T04:02:38.287Z,92.71
2023-02-13T04:07:30.739Z,92.65
2023-02-13T04:12:36.778Z,92.52
2023-02-13T04:17:36.893Z,92.58
2023-02-13T04:22:28.644Z,92.92
2023-02-13T04:27:20.527Z,92.57
2023-02-13T04:32:13.860Z,93.05
2023-02-13T04:37:05.633Z,93.53
2023-02-13T04:41:57.737Z,93.03
2023-02-13T04:46:50.814Z,93.58
2023-02-13T04:51:42.858Z,93.42
2023-02-13T04:56:34.656Z,93.65
2023-02-13T05:01:32.529Z,93.52
2023-02-13T05:06:24.499Z,93.43
2023-02-13T05:11:16.567Z,93.33
2023-02-13T05:16:08.658Z,93.93
2023-02-13T05:21:19.105Z,94.38
2023-02-13T05:26:10.832Z,94.28
2023-02-13T05:31:02.900Z,94.14
2023-02-13T05:35:54.754Z,94.66
2023-02-13T05:40:46.448Z,95.18
2023-02-13T05:45:38.075Z,94.80
2023-02-13T05:50:29.728Z,95.22
2023-02-13T05:55:21.579Z,95.36
2023-02-13T06:00:13.921Z,95.59
2023-02-13T06:05:06.063Z,95.67
2023-02-13T06:09:59.645Z,95.08
2023-02-13T06:14:51.636Z,95.27
2023-02-13T06:19:43.438Z,95.85
2023-02-13T06:24:35.420Z,95.04
2023-02-13T06:29:27.186Z,95.61
2023-02-13T06:34:18.866Z,94.82
2023-02-13T06:39:11.377Z,95.19
2023-02-13T06:44:03.064Z,94.84
2023-02-13T06:48:54.786Z,94.20
2023-02-13T06:53:46.475Z,94.71
2023-02-13T06:58:40.151Z,94.35
2023-02-13T07:03:31.947Z,94.01
2023-02-13T07:08:23.961Z,93.88
2023-02-13T07:13:15.708Z,93.99
2023-02-13T07:18:07.496Z,94.47
2023-02-13T07:23:04.056Z,94.89
2023-02-13T07:27:56.237Z,95.24
2023-02-13T07:32:50.654Z,95.29
2023-02-13T07:37:42.400Z,95.02
2023-02-13T07:42:34.887Z,94.90
2023-02-13T07:47:26.662Z,95.32
2023-02-13T07:52:18.430Z,95.44
2023-02-13T07:57:10.211Z,95.27
2023-02-13T08:02:01.948Z,95.51
2023-02-13T08:06:53.709Z,95.59
2023-02-13T08:11:54.298Z,95.01
2023-02-13T08:16:46.185Z,94.81
2023-02-13T08:21:38.540Z,95.02
2023-02-13T08:26:31.965Z,94.31
2023-02-13T08:31:23.953Z,94.23
2023-02-13T08:36:15.826Z,94.39
2023-02-13T08:41:07.774Z,93.70
2023-02-13T08:46:01.100Z,93.60
2023-02-13T08:50:53.450Z,93.47
2023-02-13T08:55:53.521Z,93.85
2023-02-13T09:00:45.210Z,92.67
2023-02-13T09:05:36.991Z,92.50
2023-02-13T09:10:28.816Z,91.93
2023-02-13T09:15:20.720Z,91.94
2023-02-13T09:20:14.032Z,91.64
2023-02-13T09:25:06.904Z,91.84
2023-02-13T09:29:58.600Z,90.49
2023-02-13T09:34:50.309Z,89.95
2023-02-13T09:39:42.251Z,90.00
2023-02-13T09:44:43.486Z,89.94
2023-02-13T09:49:39.021Z,89.06
2023-02-13T09:54:32.297Z,88.79
2023-02-13T09:59:23.948Z,87.93
2023-02-13T10:04:52.890Z,87.47
2023-02-13T10:09:55.431Z,87.50
2023-02-13T10:15:00.380Z,86.01
2023-02-13T10:20:03.754Z,85.94
2023-02-13T10:25:01.554Z,84.53
2023-02-13T10:30:09.357Z,84.23
2023-02-13T10:35:04.235Z,83.70
2023-02-13T10:39:56.365Z,80.98
2023-02-13T10:45:30.060Z,79.83
2023-02-13T10:50:40.162Z,78.87
2023-02-13T10:55:51.492Z,78.22
2023-02-13T11:00:56.406Z,77.94
2023-02-13T11:05:49.785Z,76.76
2023-02-13T11:10:41.566Z,76.51
2023-02-13T11:15:33.504Z,76.28
2023-02-13T11:20:39.905Z,76.82
2023-02-13T11:25:31.680Z,77.58
2023-02-13T11:30:23.445Z,76.88
2023-02-13T11:35:36.618Z,76.38
2023-02-13T11:40:32.465Z,76.88
2023-02-13T11:45:26.222Z,76.52
2023-02-13T11:50:32.537Z,75.34
2023-02-13T11:55:33.632Z,74.44
2023-02-13T12:00:30.216Z,72.74
2023-02-13T12:05:24.858Z,71.83
2023-02-13T12:10:23.486Z,70.92
2023-02-13T12:15:25.565Z,69.92
2023-02-13T12:20:18.210Z,70.07
2023-02-13T12:25:19.438Z,69.97
2023-02-13T12:30:29.166Z,70.18
2023-02-13T12:35:50.295Z,69.95
2023-02-13T12:41:13.013Z,70.16
2023-02-13T12:46:50.141Z,69.84
2023-02-13T12:52:10.822Z,69.61
2023-02-13T12:57:11.039Z,68.91
2023-02-13T13:02:11.810Z,68.86
2023-02-13T13:07:37.834Z,68.41
2023-02-13T13:13:00.785Z,67.60
2023-02-13T13:18:04.510Z,68.34
2023-02-13T13:23:26.462Z,68.69
2023-02-13T13:28:26.232Z,68.50
2023-02-13T13:33:20.824Z,67.42
2023-02-13T13:38:19.626Z,68.21
2023-02-13T13:43:41.430Z,67.98
2023-02-13T13:48:54.121Z,68.66
2023-02-13T13:54:19.522Z,67.97
2023-02-13T13:59:18.456Z,69.20
2023-02-13T14:04:31.919Z,70.22
2023-02-13T14:09:27.983Z,69.75
2023-02-13T14:14:29.015Z,70.88
2023-02-13T14:19:29.571Z,70.78
2023-02-13T14:24:24.253Z,70.48
2023-02-13T14:29:18.611Z,70.28
2023-02-13T14:34:15.072Z,70.75
2023-02-13T14:39:33.595Z,70.63
2023-02-13T14:44:32.507Z,70.59
2023-02-13T14:49:37.242Z,70.99
2023-02-13T14:54:34.537Z,69.99
2023-02-13T14:59:35.277Z,69.76
2023-02-13T15:04:49.334Z,70.50
2023-02-13T15:09:48.577Z,71.16
2023-02-13T15:14:40.316Z,71.40
2023-02-13T15:19:34.609Z,69.87
2023-02-13T15:24:27.948Z,69.93
2023-02-13T15:29:29.337Z,71.10
2023-02-13T15:34:34.481Z,71.14
2023-02-13T15:39:31.378Z,72.33
2023-02-13T15:44:27.672Z,71.94
2023-02-13T15:49:25.714Z,71.51
2023-02-13T15:54:27.929Z,71.38
2023-02-13T15:59:21.447Z,71.69
2023-02-13T16:04:15.846Z,71.79
2023-02-13T16:09:07.709Z,72.17
2023-02-13T16:13:59.394Z,71.44
2023-02-13T16:18:52.344Z,71.76
2023-02-13T16:23:45.687Z,71.76
2023-02-13T16:28:37.974Z,71.91
2023-02-13T16:33:35.884Z,72.55
2023-02-13T16:38:46.269Z,72.66
2023-02-13T16:43:49.172Z,73.10
2023-02-13T16:48:59.879Z,73.63
2023-02-13T16:53:58.356Z,73.58
2023-02-13T16:58:50.445Z,74.45
2023-02-13T17:03:42.421Z,74.75
2023-02-13T17:08:34.201Z,74.92
2023-02-13T17:13:25.938Z,75.34
2023-02-13T17:18:17.925Z,75.48
2023-02-13T17:23:17.490Z,76.20
2023-02-13T17:28:15.252Z,76.02
2023-02-13T17:33:14.785Z,76.72
2023-02-13T17:38:08.404Z,76.96
2023-02-13T17:43:00.378Z,77.63
2023-02-13T17:47:52.108Z,77.38
2023-02-13T17:52:45.978Z,77.79
2023-02-13T17:57:37.696Z,78.21
2023-02-13T18:02:29.461Z,78.19
2023-02-13T18:07:21.818Z,78.64
2023-02-13T18:12:20.008Z,78.93
2023-02-13T18:17:11.917Z,78.64
2023-02-13T18:22:04.949Z,79.48
2023-02-13T18:26:56.867Z,79.42
2023-02-13T18:31:51.270Z,80.15
2023-02-13T18:36:43.139Z,80.54
2023-02-13T18:41:34.922Z,81.83
2023-02-13T18:46:26.740Z,81.98
2023-02-13T18:51:18.658Z,82.31
2023-02-13T18:56:12.082Z,83.33
2023-02-13T19:01:12.615Z,83.30
2023-02-13T19:06:09.492Z,84.04
2023-02-13T19:11:05.037Z,84.98
2023-02-13T19:15:56.846Z,85.29
2023-02-13T19:20:48.565Z,85.48
2023-02-13T19:25:40.236Z,86.40
2023-02-13T19:30:32.017Z,86.81
2023-02-13T19:35:24.693Z,87.15
2023-02-13T19:40:16.441Z,87.73
2023-02-13T19:45:08.634Z,88.57
2023-02-13T19:50:00.468Z,89.51
2023-02-13T19:54:54.195Z,89.47
2023-02-13T19:59:45.919Z,89.57
2023-02-13T20:04:39.349Z,90.49
2023-02-13T20:09:31.138Z,91.06
2023-02-13T20:14:22.818Z,90.98
2023-02-13T20:19:14.822Z,91.06
2023-02-13T20:24:06.896Z,91.17
2023-02-13T20:28:59.741Z,92.54
2023-02-13T20:33:52.540Z,93.25
2023-02-13T20:38:45.115Z,94.10
2023-02-13T20:43:37.432Z,94.16
2023-02-13T20:48:29.271Z,94.02
2023-02-13T20:53:21.432Z,94.30
2023-02-13T20:58:13.222Z,94.47
2023-02-13T21:03:05.057Z,94.90
2023-02-13T21:07:57.002Z,95.10
2023-02-13T21:12:48.672Z,95.31
2023-02-13T21:17:41.926Z,96.26
2023-02-13T21:22:35.093Z,96.44
2023-02-13T21:27:28.496Z,96.31
2023-02-13T21:32:20.987Z,96.01
2023-02-13T21:37:12.724Z,96.29
2023-02-13T21:42:04.971Z,96.12
2023-02-13T21:46:56.746Z,95.84
2023-02-13T21:51:48.541Z,96.17
2023-02-13T21:56:42.455Z,96.50
2023-02-13T22:01:37.574Z,96.75
2023-02-13T22:06:31.731Z,96.88
2023-02-13T22:11:24.173Z,97.72
2023-02-13T22:16:16.038Z,97.66
2023-02-13T22:21:09.983Z,97.90
2023-02-13T22:26:02.354Z,98.00
2023-02-13T22:30:55.001Z,98.63
2023-02-13T22:35:46.861Z,98.56
2023-02-13T22:40:39.056Z,98.92
2023-02-13T22:45:31.411Z,98.99
2023-02-13T22:50:23.077Z,98.37
2023-02-13T22:55:14.856Z,98.86
2023-02-13T23:00:09.321Z,98.70
2023-02-13T23:05:01.136Z,99.08
2023-02-13T23:09:52.913Z,99.78
2023-02-13T23:14:44.554Z,99.73
2023-02-13T23:19:36.501Z,99.61
2023-02-13T23:24:31.323Z,100.00
2023-02-13T23:29:23.072Z,100.00
2023-02-13T23:34:14.908Z,100.00
2023-02-13T23:39:08.392Z,100.00
2023-02-13T23:44:00.137Z,100.00
2023-02-13T23:48:51.791Z,100.00
2023-02-13T23:53:43.489Z,100.00
2023-02-13T23:58:35.262Z,100.00
